Time;durP1;ratioP1;P1;durP2;ratioP2;P2;SDS_P1;SDS_P2;PMS_P1;PMS_P2;Temp;Humidity;BMP_temperature;BMP_pressure;BME280_temperature;BME280_humidity;BME280_pressure;Samples;Min_cycle;Max_cycle;Signal;HPM_P1;HPM_P2
2023/08/21 00:09:32;;;;;;;14.4;11.6;;;;;;;20.09;84.05;;;;;
2023/08/21 00:19:32;;;;;;;14.4;11.6;;;;;;;20.01;84.43;;;;;
2023/08/21 00:30:32;;;;;;;14.4;11.6;;;;;;;19.91;84.87;;;;;
2023/08/21 00:40:32;;;;;;;13.3;11.2;;;;;;;19.92;85.19;;;;;
2023/08/21 00:50:32;;;;;;;13.3;11.2;;;;;;;19.87;85.76;;;;;
2023/08/21 01:01:32;;;;;;;13.1;11.4;;;;;;;19.81;85.96;;;;;
2023/08/21 01:11:32;;;;;;;13.1;11.4;;;;;;;19.76;85.66;;;;;
2023/08/21 01:21:32;;;;;;;13.1;11.4;;;;;;;19.63;85.38;;;;;
2023/08/21 01:31:32;;;;;;;13.2;10.4;;;;;;;19.38;87.07;;;;;
2023/08/21 01:41:32;;;;;;;13.2;10.4;;;;;;;19.33;86.45;;;;;
2023/08/21 01:51:32;;;;;;;13.2;10.4;;;;;;;19.23;86.62;;;;;
2023/08/21 02:02:32;;;;;;;14;10.6;;;;;;;19.13;86.01;;;;;
2023/08/21 02:12:32;;;;;;;14;10.6;;;;;;;19.05;87.27;;;;;
2023/08/21 02:23:32;;;;;;;14;10.6;;;;;;;18.95;87.92;;;;;
2023/08/21 02:33:32;;;;;;;11.8;10.6;;;;;;;18.91;87.31;;;;;
2023/08/21 02:44:32;;;;;;;11.8;10.6;;;;;;;18.89;87.14;;;;;
2023/08/21 02:55:32;;;;;;;11.8;10.6;;;;;;;18.93;87.71;;;;;
2023/08/21 03:06:32;;;;;;;16.1;11.2;;;;;;;19.09;88.67;;;;;
2023/08/21 03:17:32;;;;;;;16.1;11.2;;;;;;;19.28;88.06;;;;;
2023/08/21 03:28:32;;;;;;;16.1;11.2;;;;;;;19.44;87.68;;;;;
2023/08/21 03:38:32;;;;;;;16.3;10.2;;;;;;;19.52;87.07;;;;;
2023/08/21 03:49:32;;;;;;;16.3;10.2;;;;;;;19.58;86.77;;;;;
2023/08/21 04:00:32;;;;;;;16.3;10.2;;;;;;;19.65;86.61;;;;;
2023/08/21 04:10:32;;;;;;;13.6;11;;;;;;;19.72;86.44;;;;;
2023/08/21 04:21:32;;;;;;;13.6;11;;;;;;;19.74;86.49;;;;;
2023/08/21 04:32:32;;;;;;;14.5;10.6;;;;;;;19.93;86.28;;;;;
2023/08/21 04:43:32;;;;;;;14.5;10.6;;;;;;;20.07;85.69;;;;;
2023/08/21 04:53:32;;;;;;;14.5;10.6;;;;;;;20.16;85.64;;;;;
2023/08/21 05:04:32;;;;;;;13.7;10.9;;;;;;;20.5;85.07;;;;;
2023/08/21 05:14:32;;;;;;;13.7;10.9;;;;;;;20.87;83.06;;;;;
2023/08/21 05:24:32;;;;;;;13.7;10.9;;;;;;;21.38;82.76;;;;;
2023/08/21 05:35:32;;;;;;;12.5;9.7;;;;;;;21.82;81;;;;;
2023/08/21 05:46:32;;;;;;;12.5;9.7;;;;;;;22.14;80.13;;;;;
2023/08/21 05:56:32;;;;;;;12.5;9.7;;;;;;;22.58;79.52;;;;;
2023/08/21 06:07:32;;;;;;;13.9;10.4;;;;;;;23.1;78.74;;;;;
2023/08/21 06:17:32;;;;;;;13.9;10.4;;;;;;;23.68;77.73;;;;;
2023/08/21 06:27:32;;;;;;;13.9;10.4;;;;;;;24.2;74.72;;;;;
2023/08/21 06:38:32;;;;;;;12.4;9.9;;;;;;;25.19;73.66;;;;;
2023/08/21 06:49:32;;;;;;;12.4;9.9;;;;;;;26.18;70.7;;;;;
2023/08/21 06:59:35;;;;;;;12.4;9.9;;;;;;;26.26;70.26;;;;;
2023/08/21 07:09:32;;;;;;;12.5;10.1;;;;;;;26.41;69.83;;;;;
2023/08/21 07:19:32;;;;;;;12.5;10.1;;;;;;;26.53;70.41;;;;;
2023/08/21 07:30:32;;;;;;;12.5;10.1;;;;;;;26.64;71.25;;;;;
2023/08/21 07:40:32;;;;;;;17.7;10.7;;;;;;;26.93;69.92;;;;;
2023/08/21 07:51:32;;;;;;;17.7;10.7;;;;;;;26.92;69.81;;;;;
2023/08/21 08:02:32;;;;;;;20.1;15.3;;;;;;;27.16;69.04;;;;;
2023/08/21 08:12:33;;;;;;;20.1;15.3;;;;;;;27.47;65.27;;;;;
2023/08/21 08:23:32;;;;;;;20.1;15.3;;;;;;;27.91;65.15;;;;;
2023/08/21 08:33:32;;;;;;;14.9;11.7;;;;;;;28.55;63.11;;;;;
2023/08/21 08:43:32;;;;;;;14.9;11.7;;;;;;;28.52;62.13;;;;;
2023/08/21 08:53:32;;;;;;;14.9;11.7;;;;;;;28.38;61.26;;;;;
2023/08/21 09:04:32;;;;;;;13;11.4;;;;;;;28.69;62.51;;;;;
2023/08/21 09:15:32;;;;;;;13;11.4;;;;;;;28.85;60.31;;;;;
2023/08/21 09:26:32;;;;;;;13;11.4;;;;;;;28.95;60.3;;;;;
2023/08/21 09:37:32;;;;;;;20.8;14;;;;;;;28.93;58.91;;;;;
2023/08/21 09:48:32;;;;;;;20.8;14;;;;;;;28.53;60.22;;;;;
2023/08/21 09:59:32;;;;;;;20.8;14;;;;;;;28.66;61.59;;;;;
2023/08/21 10:09:32;;;;;;;25;18.9;;;;;;;29.01;59.85;;;;;
2023/08/21 10:20:32;;;;;;;25;18.9;;;;;;;28.97;60.48;;;;;
2023/08/21 10:31:32;;;;;;;26.2;19.6;;;;;;;29.5;58.23;;;;;
2023/08/21 10:41:32;;;;;;;26.2;19.6;;;;;;;29.57;60.13;;;;;
2023/08/21 10:52:33;;;;;;;26.2;19.6;;;;;;;29.11;62.96;;;;;
2023/08/21 11:03:32;;;;;;;25.7;20;;;;;;;29.63;61.02;;;;;
2023/08/21 11:14:32;;;;;;;25.7;20;;;;;;;30.17;60.44;;;;;
2023/08/21 11:25:32;;;;;;;25.7;20;;;;;;;30.03;58.23;;;;;
2023/08/21 11:35:32;;;;;;;22.6;18.5;;;;;;;29.91;56.91;;;;;
2023/08/21 11:46:32;;;;;;;22.6;18.5;;;;;;;30.6;58.12;;;;;
2023/08/21 11:57:32;;;;;;;22.6;18.5;;;;;;;30.59;56.4;;;;;
2023/08/21 12:08:32;;;;;;;22.8;17.2;;;;;;;31.27;56.73;;;;;
2023/08/21 12:19:32;;;;;;;22.8;17.2;;;;;;;31.8;54.46;;;;;
2023/08/21 12:30:32;;;;;;;22.8;17.2;;;;;;;30.99;53.6;;;;;
2023/08/21 12:40:32;;;;;;;24.3;15.5;;;;;;;30.66;54.55;;;;;
2023/08/21 12:51:32;;;;;;;24.3;15.5;;;;;;;30.42;56.2;;;;;
2023/08/21 13:02:32;;;;;;;18.6;13.1;;;;;;;30.17;58.09;;;;;
2023/08/21 13:12:32;;;;;;;18.6;13.1;;;;;;;30.43;58.88;;;;;
2023/08/21 13:22:32;;;;;;;18.6;13.1;;;;;;;30.54;59.25;;;;;
2023/08/21 13:33:33;;;;;;;18.3;14.3;;;;;;;31;54.35;;;;;
2023/08/21 13:44:32;;;;;;;18.3;14.3;;;;;;;31.06;54.94;;;;;
2023/08/21 13:55:32;;;;;;;18.3;14.3;;;;;;;31.51;53.52;;;;;
2023/08/21 14:05:33;;;;;;;17.5;12.1;;;;;;;31.47;52.1;;;;;
2023/08/21 14:16:32;;;;;;;17.5;12.1;;;;;;;31.68;52.22;;;;;
2023/08/21 14:26:32;;;;;;;17.5;12.1;;;;;;;31.78;51.89;;;;;
2023/08/21 14:37:32;;;;;;;18.5;11.8;;;;;;;31.85;51.83;;;;;
2023/08/21 14:47:32;;;;;;;18.5;11.8;;;;;;;32.18;50.09;;;;;
2023/08/21 14:57:32;;;;;;;18.5;11.8;;;;;;;31.65;50.76;;;;;
2023/08/21 15:08:32;;;;;;;15.1;10.6;;;;;;;32.2;50.3;;;;;
2023/08/21 15:18:32;;;;;;;15.1;10.6;;;;;;;33.21;49.56;;;;;
2023/08/21 15:29:32;;;;;;;15.1;10.6;;;;;;;35.16;46.8;;;;;
2023/08/21 15:40:32;;;;;;;14.4;11.5;;;;;;;34.43;48.01;;;;;
2023/08/21 15:51:32;;;;;;;14.4;11.5;;;;;;;34.7;46.96;;;;;
2023/08/21 16:01:33;;;;;;;14.4;11.5;;;;;;;32.04;52.64;;;;;
2023/08/21 16:11:32;;;;;;;16.3;10.8;;;;;;;31.49;56.49;;;;;
2023/08/21 16:21:32;;;;;;;16.3;10.8;;;;;;;31.48;55.6;;;;;
2023/08/21 16:32:32;;;;;;;14.2;11.3;;;;;;;31.14;55.69;;;;;
2023/08/21 16:42:32;;;;;;;14.2;11.3;;;;;;;30.35;58.33;;;;;
2023/08/21 16:52:32;;;;;;;14.2;11.3;;;;;;;30.04;59.76;;;;;
2023/08/21 17:03:32;;;;;;;13.9;12.4;;;;;;;29.63;60.76;;;;;
2023/08/21 17:14:32;;;;;;;13.9;12.4;;;;;;;29.06;62.18;;;;;
2023/08/21 17:24:32;;;;;;;13.9;12.4;;;;;;;28.42;64.23;;;;;
2023/08/21 17:34:32;;;;;;;17.2;12.9;;;;;;;27.76;65.73;;;;;
2023/08/21 17:45:33;;;;;;;17.2;12.9;;;;;;;27.11;68.75;;;;;
2023/08/21 17:55:32;;;;;;;17.2;12.9;;;;;;;26.56;70.35;;;;;
2023/08/21 18:05:32;;;;;;;16.7;13.8;;;;;;;26.2;72.46;;;;;
2023/08/21 18:16:32;;;;;;;16.7;13.8;;;;;;;25.88;74.95;;;;;
2023/08/21 18:27:32;;;;;;;16.7;13.8;;;;;;;25.7;74.69;;;;;
2023/08/21 18:37:32;;;;;;;17;13;;;;;;;25.46;76.31;;;;;
2023/08/21 18:48:32;;;;;;;17;13;;;;;;;25.26;76.76;;;;;
2023/08/21 18:59:32;;;;;;;17;13;;;;;;;25.14;76.61;;;;;
2023/08/21 19:09:32;;;;;;;14.7;12.8;;;;;;;24.95;77.83;;;;;
2023/08/21 19:19:32;;;;;;;14.7;12.8;;;;;;;24.78;78.17;;;;;
2023/08/21 19:30:32;;;;;;;14.7;12.8;;;;;;;24.73;78.11;;;;;
2023/08/21 19:40:32;;;;;;;19.1;15.8;;;;;;;24.64;77.84;;;;;
2023/08/21 19:50:32;;;;;;;19.1;15.8;;;;;;;24.37;79.07;;;;;
2023/08/21 20:00:32;;;;;;;19.1;15.8;;;;;;;24.09;80.14;;;;;
2023/08/21 20:10:32;;;;;;;18;14.9;;;;;;;23.86;79.66;;;;;
2023/08/21 20:21:32;;;;;;;18;14.9;;;;;;;23.66;79.93;;;;;
2023/08/21 20:32:32;;;;;;;18;14.9;;;;;;;23.5;79.92;;;;;
2023/08/21 20:42:32;;;;;;;16;11;;;;;;;23.35;80.25;;;;;
2023/08/21 20:52:32;;;;;;;16;11;;;;;;;23.17;81.1;;;;;
2023/08/21 21:03:32;;;;;;;15.1;11.4;;;;;;;22.84;82.48;;;;;
2023/08/21 21:13:33;;;;;;;15.1;11.4;;;;;;;22.83;82.66;;;;;
2023/08/21 21:24:32;;;;;;;15.1;11.4;;;;;;;22.93;82.16;;;;;
2023/08/21 21:34:32;;;;;;;13.9;10.5;;;;;;;22.79;82.76;;;;;
2023/08/21 21:45:32;;;;;;;13.9;10.5;;;;;;;22.76;83.01;;;;;
2023/08/21 21:55:32;;;;;;;13.9;10.5;;;;;;;22.67;83.45;;;;;
2023/08/21 22:06:38;;;;;;;11.8;9.7;;;;;;;22.45;83.35;;;;;
2023/08/21 22:16:32;;;;;;;11.8;9.7;;;;;;;22.42;84.04;;;;;
2023/08/21 22:27:32;;;;;;;11.8;9.7;;;;;;;22.21;85.51;;;;;
2023/08/21 22:38:32;;;;;;;14.1;11.4;;;;;;;22.11;84.87;;;;;
2023/08/21 22:48:33;;;;;;;14.1;11.4;;;;;;;21.93;84.92;;;;;
2023/08/21 22:59:32;;;;;;;14.1;11.4;;;;;;;21.78;85.13;;;;;
2023/08/21 23:09:32;;;;;;;14;11.1;;;;;;;21.61;85.03;;;;;
2023/08/21 23:20:32;;;;;;;14;11.1;;;;;;;21.23;87.53;;;;;
2023/08/21 23:31:33;;;;;;;14;11.1;;;;;;;21.22;87.18;;;;;
2023/08/21 23:41:32;;;;;;;17.1;12.7;;;;;;;21.17;87.67;;;;;
2023/08/21 23:51:32;;;;;;;17.1;12.7;;;;;;;21.07;87.72;;;;;
